Time;durP1;ratioP1;P1;durP2;ratioP2;P2;SDS_P1;SDS_P2;PMS_P1;PMS_P2;Temp;Humidity;BMP_temperature;BMP_pressure;BME280_temperature;BME280_humidity;BME280_pressure;Samples;Min_cycle;Max_cycle;Signal;HPM_P1;HPM_P2
2021/11/04 00:01:04;;;;;;;12.95;9.27;;;;;;;13.72;83.49;99355.88;4973042;28;20491;-66
2021/11/04 00:03:36;;;;;;;10.05;8.55;;;;;;;13.73;83.45;99354.09;4973388;28;20645;-63
2021/11/04 00:06:03;;;;;;;11.73;9.10;;;;;;;13.73;83.66;99340.91;4972547;28;20525;-64
2021/11/04 00:08:31;;;;;;;10.55;8.50;;;;;;;13.73;83.48;99327.72;4972980;28;20059;-65
2021/11/04 00:10:57;;;;;;;10.60;8.30;;;;;;;13.71;83.69;99315.50;4973263;28;20134;-64
2021/11/04 00:13:25;;;;;;;11.63;8.90;;;;;;;13.68;83.65;99317.59;4973236;28;20167;-63
2021/11/04 00:15:53;;;;;;;9.52;8.52;;;;;;;13.64;83.53;99338.13;4972314;28;20067;-63
2021/11/04 00:18:19;;;;;;;6.07;4.60;;;;;;;13.57;83.75;99342.28;4973180;28;20077;-63
2021/11/04 00:20:46;;;;;;;5.03;3.50;;;;;;;13.52;84.10;99337.47;4973138;28;20055;-63
2021/11/04 00:23:13;;;;;;;4.53;3.95;;;;;;;13.52;84.01;99331.34;4972024;28;20054;-65
2021/11/04 00:25:40;;;;;;;3.53;3.22;;;;;;;13.48;83.92;99316.78;4972650;28;20109;-65
2021/11/04 00:28:06;;;;;;;5.07;3.00;;;;;;;13.43;83.74;99322.47;4972889;28;20515;-63
2021/11/04 00:30:33;;;;;;;4.20;3.17;;;;;;;13.46;83.70;99326.63;4972138;28;20050;-63
2021/11/04 00:33:00;;;;;;;3.35;2.70;;;;;;;13.47;83.66;99320.38;4972547;28;20046;-63
2021/11/04 00:35:28;;;;;;;3.15;2.85;;;;;;;13.45;83.16;99330.25;4972463;28;20054;-63
2021/11/04 00:37:59;;;;;;;3.90;2.55;;;;;;;13.44;83.78;99332.03;4972083;28;20054;-64
2021/11/04 00:40:26;;;;;;;3.72;3.03;;;;;;;13.39;83.56;99337.75;4971232;28;20066;-64
2021/11/04 00:42:52;;;;;;;4.25;2.90;;;;;;;13.43;83.67;99335.66;4972561;28;20066;-62
2021/11/04 00:45:21;;;;;;;3.78;3.00;;;;;;;13.44;83.25;99350.50;4964225;28;20597;-63
2021/11/04 00:47:50;;;;;;;4.45;2.72;;;;;;;13.47;83.29;99354.66;4967019;28;20058;-63
2021/11/04 00:50:18;;;;;;;5.20;2.92;;;;;;;13.44;83.44;99352.31;4972459;28;20385;-64
2021/11/04 00:52:44;;;;;;;4.47;2.55;;;;;;;13.45;83.40;99367.16;4972395;28;20047;-64
2021/11/04 00:55:12;;;;;;;4.20;2.78;;;;;;;13.44;83.15;99370.75;4972411;28;20050;-63
2021/11/04 00:57:39;;;;;;;4.60;2.35;;;;;;;13.43;82.96;99377.00;4971702;28;20059;-64
2021/11/04 01:00:10;;;;;;;4.28;1.60;;;;;;;13.38;83.00;99372.97;4971709;28;20098;-64
2021/11/04 01:02:37;;;;;;;3.45;1.40;;;;;;;13.36;83.17;99366.16;4972530;28;20051;-64
2021/11/04 01:05:05;;;;;;;2.83;1.30;;;;;;;13.29;83.24;99357.94;4972149;28;20051;-64
2021/11/04 01:07:32;;;;;;;2.97;1.10;;;;;;;13.21;83.22;99344.66;4972394;28;20043;-64
2021/11/04 01:09:59;;;;;;;3.30;0.90;;;;;;;13.14;82.98;99336.47;4971982;28;20054;-64
2021/11/04 01:12:26;;;;;;;1.20;0.63;;;;;;;13.04;82.66;99333.00;4971194;28;20055;-65
2021/11/04 01:14:53;;;;;;;1.73;0.73;;;;;;;12.93;82.58;99333.97;4971365;28;20059;-64
2021/11/04 01:17:20;;;;;;;1.30;0.65;;;;;;;12.93;82.57;99336.59;4971934;28;20414;-64
2021/11/04 01:19:47;;;;;;;1.17;0.40;;;;;;;12.88;82.33;99337.00;4971628;28;20047;-64
2021/11/04 01:22:14;;;;;;;0.30;0.30;;;;;;;12.92;81.84;99334.94;4971964;28;20050;-64
2021/11/04 01:24:40;;;;;;;0.75;0.45;;;;;;;12.86;81.65;99324.94;4971749;28;20177;-64
2021/11/04 01:27:07;;;;;;;0.40;0.20;;;;;;;12.89;81.50;99314.97;4971814;28;20058;-64
2021/11/04 01:29:34;;;;;;;1.65;0.40;;;;;;;12.91;81.19;99314.81;4971404;28;20046;-64
2021/11/04 01:32:00;;;;;;;1.70;0.30;;;;;;;12.88;80.64;99328.28;4970534;28;20142;-63
2021/11/04 01:34:27;;;;;;;3.70;0.40;;;;;;;12.88;80.62;99334.34;4971417;28;20058;-65
2021/11/04 01:36:54;;;;;;;0.50;0.30;;;;;;;12.90;80.48;99342.16;4971269;28;20055;-64
2021/11/04 01:39:21;;;;;;;0.50;0.30;;;;;;;12.89;80.08;99348.38;4971382;28;20050;-63
2021/11/04 01:41:48;;;;;;;0.98;0.30;;;;;;;12.88;80.18;99358.06;4971271;28;20126;-64
2021/11/04 01:44:14;;;;;;;0.88;0.40;;;;;;;12.88;79.72;99352.78;4971408;28;20496;-63
2021/11/04 01:46:42;;;;;;;0.60;0.30;;;;;;;12.87;79.86;99363.47;4969703;28;20403;-63
2021/11/04 01:49:09;;;;;;;1.13;0.20;;;;;;;12.83;79.36;99383.97;4971359;28;20051;-63
2021/11/04 01:51:36;;;;;;;0.70;0.30;;;;;;;12.82;79.51;99371.75;4970091;28;20542;-64
2021/11/04 01:54:03;;;;;;;0.77;0.30;;;;;;;12.83;79.49;99388.41;4953842;28;20047;-64
2021/11/04 01:56:30;;;;;;;0.40;0.30;;;;;;;12.81;79.27;99401.72;4950813;28;20098;-64
2021/11/04 01:58:56;;;;;;;1.63;0.45;;;;;;;12.74;79.26;99405.84;4956347;28;20047;-64
2021/11/04 02:01:23;;;;;;;1.40;0.47;;;;;;;12.71;79.18;99419.28;4956891;28;20039;-64
2021/11/04 02:03:56;;;;;;;2.20;0.40;;;;;;;12.69;79.03;99427.28;4958582;28;20043;-64
2021/11/04 02:06:35;;;;;;;0.80;0.30;;;;;;;12.63;78.96;99427.00;4955807;28;20055;-64
2021/11/04 02:09:05;;;;;;;1.25;0.40;;;;;;;12.55;78.86;99441.63;4964686;28;20050;-64
2021/11/04 02:11:41;;;;;;;0.75;0.40;;;;;;;12.49;79.00;99457.94;4974048;28;20135;-64
2021/11/04 02:14:16;;;;;;;2.22;0.40;;;;;;;12.46;79.03;99465.28;4964159;28;20070;-64
2021/11/04 02:16:44;;;;;;;0.20;0.20;;;;;;;12.44;78.81;99467.19;4964699;28;20066;-64
2021/11/04 02:19:25;;;;;;;0.45;0.30;;;;;;;12.46;78.90;99470.56;4974114;28;20050;-64
2021/11/04 02:21:57;;;;;;;0.70;0.43;;;;;;;12.43;79.02;99460.28;4964111;28;20047;-64
2021/11/04 02:24:47;;;;;;;0.20;0.20;;;;;;;12.45;78.93;99464.44;4973859;28;20070;-64
2021/11/04 02:27:15;;;;;;;0.50;0.40;;;;;;;12.40;79.01;99445.56;4967325;28;20058;-64
2021/11/04 02:29:43;;;;;;;0.30;0.30;;;;;;;12.40;78.78;99448.22;4973634;28;20451;-63
2021/11/04 02:32:12;;;;;;;1.35;0.65;;;;;;;12.40;78.79;99461.38;4973512;28;20567;-64
2021/11/04 02:34:41;;;;;;;0.60;0.30;;;;;;;12.34;79.08;99461.88;4973685;28;20069;-64
2021/11/04 02:37:09;;;;;;;0.60;0.30;;;;;;;12.34;78.83;99468.00;4972573;28;20051;-65
2021/11/04 02:39:37;;;;;;;0.65;0.40;;;;;;;12.31;79.14;99473.50;4973719;28;20396;-64
2021/11/04 02:42:05;;;;;;;0.63;0.30;;;;;;;12.34;78.82;99473.25;4973524;28;20113;-64
2021/11/04 02:44:32;;;;;;;0.85;0.40;;;;;;;12.34;78.67;99473.25;4973605;28;20057;-64
2021/11/04 02:46:59;;;;;;;1.13;0.40;;;;;;;12.31;78.71;99478.75;4973313;28;20495;-64
2021/11/04 02:49:26;;;;;;;1.35;0.70;;;;;;;12.29;78.71;99470.19;4973083;28;20047;-64
2021/11/04 02:51:54;;;;;;;0.70;0.52;;;;;;;12.20;78.68;99477.06;4969891;28;20491;-65
2021/11/04 02:54:21;;;;;;;2.00;0.45;;;;;;;12.19;78.76;99488.53;4972609;28;20069;-65
2021/11/04 02:56:54;;;;;;;1.55;0.47;;;;;;;12.21;78.63;99489.25;4973238;28;20043;-65
2021/11/04 02:59:23;;;;;;;0.70;0.52;;;;;;;12.23;78.50;99500.44;4973570;28;20039;-64
2021/11/04 03:01:52;;;;;;;1.05;0.60;;;;;;;12.24;78.19;99509.19;4973010;28;20495;-64
2021/11/04 03:04:20;;;;;;;1.27;0.57;;;;;;;12.17;78.68;99529.06;4964221;28;20062;-65
2021/11/04 03:06:48;;;;;;;0.90;0.60;;;;;;;12.14;78.55;99534.56;4973039;28;20517;-64
2021/11/04 03:09:17;;;;;;;2.25;0.95;;;;;;;12.11;78.62;99561.94;4973402;28;20039;-64
2021/11/04 03:11:44;;;;;;;1.33;1.10;;;;;;;12.13;78.56;99567.09;4972331;28;20084;-64
2021/11/04 03:14:11;;;;;;;1.80;1.30;;;;;;;12.09;78.68;99585.75;4973268;28;20066;-64
2021/11/04 03:16:44;;;;;;;1.77;1.55;;;;;;;12.08;78.76;99601.66;4973321;28;20507;-65
2021/11/04 03:19:14;;;;;;;2.67;2.08;;;;;;;12.10;78.79;99612.91;4973265;28;20396;-64
2021/11/04 03:21:47;;;;;;;2.53;2.15;;;;;;;12.05;79.31;99596.66;4973395;28;20061;-63
2021/11/04 03:24:19;;;;;;;2.33;1.70;;;;;;;12.06;79.46;99569.38;4973262;28;20054;-64
2021/11/04 03:27:02;;;;;;;1.75;1.25;;;;;;;12.05;79.29;99579.06;4972210;28;20051;-64
2021/11/04 03:29:35;;;;;;;2.58;2.13;;;;;;;12.01;79.67;99563.66;4973098;28;20031;-64
2021/11/04 03:32:10;;;;;;;1.88;1.27;;;;;;;12.02;80.01;99565.34;4973055;28;20058;-64
2021/11/04 03:34:38;;;;;;;1.25;1.00;;;;;;;12.02;79.76;99575.84;4972954;28;20047;-65
2021/11/04 03:37:05;;;;;;;1.58;1.00;;;;;;;12.01;79.79;99574.19;4973034;28;20065;-64
2021/11/04 03:39:33;;;;;;;1.85;0.93;;;;;;;12.04;79.73;99574.78;4973134;28;20050;-64
2021/11/04 03:42:01;;;;;;;1.77;1.00;;;;;;;12.01;79.73;99585.56;4973090;28;20177;-64
2021/11/04 03:44:28;;;;;;;1.40;1.00;;;;;;;12.00;79.84;99602.28;4972990;28;20102;-64
2021/11/04 03:46:57;;;;;;;3.22;0.90;;;;;;;12.00;79.97;99609.31;4971883;28;20058;-64
2021/11/04 03:49:24;;;;;;;1.77;1.10;;;;;;;11.96;79.92;99616.63;4973132;28;20051;-64
2021/11/04 03:51:53;;;;;;;1.33;1.00;;;;;;;11.97;79.77;99623.53;4973007;28;20130;-64
2021/11/04 03:54:22;;;;;;;1.92;1.20;;;;;;;11.95;79.78;99624.59;4973335;28;20406;-64
2021/11/04 03:56:50;;;;;;;1.83;0.95;;;;;;;11.97;79.82;99634.06;4972843;28;20043;-64
2021/11/04 03:59:17;;;;;;;2.50;1.02;;;;;;;11.93;79.54;99636.09;4973131;28;20054;-64
2021/11/04 04:01:44;;;;;;;3.03;1.42;;;;;;;11.93;79.52;99649.25;4971984;28;20047;-64
2021/11/04 04:04:11;;;;;;;1.98;1.20;;;;;;;11.96;79.53;99647.34;4967802;28;20511;-64
2021/11/04 04:06:38;;;;;;;2.05;1.35;;;;;;;11.90;79.61;99649.47;4969530;28;20054;-64
2021/11/04 04:09:07;;;;;;;1.67;1.35;;;;;;;11.91;79.54;99664.28;4969601;28;20058;-64
2021/11/04 04:11:33;;;;;;;2.60;1.20;;;;;;;11.88;79.66;99659.28;4969698;28;20102;-64
2021/11/04 04:14:00;;;;;;;1.65;1.40;;;;;;;11.89;79.80;99668.00;4970393;28;20093;-64
2021/11/04 04:16:27;;;;;;;2.42;1.65;;;;;;;11.92;79.36;99675.63;4972926;28;20042;-64
2021/11/04 04:18:54;;;;;;;1.70;1.60;;;;;;;11.87;79.61;99678.66;4972272;28;20089;-64
2021/11/04 04:21:20;;;;;;;1.58;1.48;;;;;;;11.82;79.65;99688.69;4972617;28;20381;-64
2021/11/04 04:23:47;;;;;;;1.63;1.52;;;;;;;11.74;79.69;99691.06;4972888;28;20047;-65
2021/11/04 04:26:14;;;;;;;2.45;1.60;;;;;;;11.70;79.58;99690.47;4972661;28;20050;-64
2021/11/04 04:28:40;;;;;;;2.13;1.70;;;;;;;11.64;79.62;99696.19;4973017;28;20078;-64
2021/11/04 04:31:07;;;;;;;2.28;1.80;;;;;;;11.57;79.22;99701.09;4972291;28;20372;-64
2021/11/04 04:33:34;;;;;;;2.05;1.85;;;;;;;11.51;79.40;99706.00;4972847;28;20113;-64
2021/11/04 04:36:01;;;;;;;2.20;2.00;;;;;;;11.53;79.40;99704.06;4971716;28;20057;-64
2021/11/04 04:38:27;;;;;;;2.85;2.40;;;;;;;11.51;79.46;99693.69;4972386;28;20050;-64
2021/11/04 04:40:54;;;;;;;3.65;2.67;;;;;;;11.43;79.38;99702.16;4972713;28;20047;-64
2021/11/04 04:43:21;;;;;;;3.65;2.80;;;;;;;11.43;79.29;99704.78;4972539;28;20058;-64
2021/11/04 04:45:48;;;;;;;3.13;2.65;;;;;;;11.38;79.26;99706.13;4972147;28;20054;-64
2021/11/04 04:48:15;;;;;;;4.55;3.40;;;;;;;11.36;79.22;99710.66;4972451;28;20300;-65
2021/11/04 04:50:42;;;;;;;4.15;3.70;;;;;;;11.30;79.28;99719.84;4972331;28;20051;-64
2021/11/04 04:53:09;;;;;;;3.95;3.45;;;;;;;11.28;79.18;99719.94;4971314;28;20053;-63
2021/11/04 04:55:36;;;;;;;4.13;3.72;;;;;;;11.29;79.21;99723.41;4972293;28;20074;-64
2021/11/04 04:58:02;;;;;;;3.55;3.25;;;;;;;11.27;79.10;99726.16;4972136;28;20049;-64
2021/11/04 05:00:29;;;;;;;4.78;4.07;;;;;;;11.24;79.31;99721.13;4972139;28;20060;-64
2021/11/04 05:02:56;;;;;;;4.50;4.10;;;;;;;11.25;79.31;99741.19;4972160;28;20046;-64
2021/11/04 05:05:23;;;;;;;4.88;4.38;;;;;;;11.23;79.30;99744.88;4972107;28;20097;-64
2021/11/04 05:07:50;;;;;;;3.88;3.58;;;;;;;11.21;79.42;99747.63;4971252;28;20495;-64
2021/11/04 05:10:18;;;;;;;4.32;3.92;;;;;;;11.29;79.04;99752.31;4971906;28;20070;-64
2021/11/04 05:12:45;;;;;;;6.25;4.30;;;;;;;11.32;78.86;99762.56;4972044;28;20050;-64
2021/11/04 05:15:12;;;;;;;4.57;4.15;;;;;;;11.34;78.95;99768.56;4971794;28;20055;-64
2021/11/04 05:17:38;;;;;;;4.70;4.22;;;;;;;11.33;79.15;99768.69;4971560;28;20074;-64
2021/11/04 05:20:08;;;;;;;6.28;4.22;;;;;;;11.38;78.88;99777.03;4971829;28;20058;-64
2021/11/04 05:22:35;;;;;;;5.10;4.60;;;;;;;11.36;78.99;99778.94;4971896;28;20042;-64
2021/11/04 05:25:02;;;;;;;4.30;3.90;;;;;;;11.41;78.96;99793.41;4970850;28;20134;-64
2021/11/04 05:27:29;;;;;;;5.47;4.82;;;;;;;11.41;79.22;99797.81;4971570;28;20055;-64
2021/11/04 05:29:56;;;;;;;4.80;4.30;;;;;;;11.46;79.10;99798.28;4971734;28;20054;-64
2021/11/04 05:32:23;;;;;;;5.28;4.63;;;;;;;11.49;78.98;99805.97;4971725;28;20050;-64
2021/11/04 05:34:52;;;;;;;6.82;5.50;;;;;;;11.54;78.93;99810.84;4971639;28;20098;-64
2021/11/04 05:37:18;;;;;;;6.55;5.50;;;;;;;11.57;78.74;99808.00;4971489;28;20054;-64
2021/11/04 05:39:45;;;;;;;7.57;5.55;;;;;;;11.58;78.86;99812.31;4971542;28;20097;-64
2021/11/04 05:42:12;;;;;;;6.82;5.20;;;;;;;11.54;78.61;99810.84;4971815;28;20047;-64
2021/11/04 05:44:38;;;;;;;7.50;6.10;;;;;;;11.55;78.85;99813.38;4970599;28;20055;-64
2021/11/04 05:47:06;;;;;;;7.53;5.90;;;;;;;11.58;78.72;99810.50;4971205;28;20500;-64
2021/11/04 05:49:38;;;;;;;8.10;6.10;;;;;;;11.62;78.68;99818.16;4971353;28;20125;-64
2021/11/04 05:52:05;;;;;;;7.25;6.55;;;;;;;11.62;78.74;99828.66;4962124;28;20054;-64
2021/11/04 05:54:32;;;;;;;8.93;6.30;;;;;;;11.63;78.75;99832.97;4971177;28;20423;-64
2021/11/04 05:56:59;;;;;;;7.32;5.88;;;;;;;11.62;78.63;99840.03;4962680;28;20062;-64
2021/11/04 05:59:26;;;;;;;6.13;5.22;;;;;;;11.60;78.56;99847.19;4953649;28;20050;-66
2021/11/04 06:01:55;;;;;;;7.40;5.75;;;;;;;11.59;78.49;99846.34;4968369;28;20415;-65
2021/11/04 06:04:22;;;;;;;7.40;5.22;;;;;;;11.56;78.44;99849.19;4970672;28;20051;-66
2021/11/04 06:06:49;;;;;;;6.45;5.15;;;;;;;11.54;78.38;99860.78;4971054;28;20400;-65
2021/11/04 06:09:16;;;;;;;6.72;4.97;;;;;;;11.51;78.15;99864.47;4970953;28;20047;-65
2021/11/04 06:11:43;;;;;;;5.95;5.30;;;;;;;11.48;78.12;99877.84;4970829;28;20058;-66
2021/11/04 06:14:10;;;;;;;5.97;5.10;;;;;;;11.48;78.19;99890.13;4970615;28;20458;-65
2021/11/04 06:16:36;;;;;;;5.78;5.10;;;;;;;11.44;78.05;99892.16;4970614;28;20047;-65
2021/11/04 06:19:09;;;;;;;5.47;4.72;;;;;;;11.42;77.64;99892.25;4969828;28;20070;-64
2021/11/04 06:21:38;;;;;;;8.85;5.05;;;;;;;11.44;77.77;99900.88;4970422;28;20047;-65
2021/11/04 06:24:04;;;;;;;5.85;5.03;;;;;;;11.36;77.65;99905.84;4970730;28;20077;-67
2021/11/04 06:26:31;;;;;;;8.05;5.90;;;;;;;11.38;77.56;99905.75;4970681;28;20046;-67
2021/11/04 06:28:58;;;;;;;6.80;6.00;;;;;;;11.39;77.69;99916.13;4970959;28;20057;-66
2021/11/04 06:31:24;;;;;;;7.72;5.90;;;;;;;11.44;77.62;99923.69;4970290;28;20050;-65
2021/11/04 06:33:51;;;;;;;6.43;5.75;;;;;;;11.50;77.27;99940.78;4969286;28;20047;-66
2021/11/04 06:36:18;;;;;;;6.68;5.70;;;;;;;11.54;77.43;99942.22;4961311;28;20047;-66
2021/11/04 06:38:44;;;;;;;7.65;5.45;;;;;;;11.48;77.29;99950.56;4951091;28;20543;-65
2021/11/04 06:41:11;;;;;;;7.50;5.80;;;;;;;11.43;77.64;99964.88;4966322;28;20058;-65
2021/11/04 06:43:38;;;;;;;8.57;5.88;;;;;;;11.38;77.61;99959.13;4970365;28;20046;-65
2021/11/04 06:46:06;;;;;;;8.55;5.82;;;;;;;11.40;77.75;99966.88;4969959;28;20070;-65
2021/11/04 06:48:45;;;;;;;8.65;6.35;;;;;;;11.44;77.45;99974.44;4969854;28;20051;-66
2021/11/04 06:51:17;;;;;;;7.47;6.30;;;;;;;11.51;77.34;99987.13;4970268;28;20097;-65
2021/11/04 06:53:48;;;;;;;7.20;4.78;;;;;;;11.61;76.75;99982.88;4969544;28;20055;-61
2021/11/04 06:56:17;;;;;;;6.25;4.47;;;;;;;11.69;76.49;99985.75;4969984;28;20460;-63
2021/11/04 06:58:47;;;;;;;7.75;4.88;;;;;;;11.70;76.28;99997.13;4964133;28;20059;-65
2021/11/04 07:01:16;;;;;;;7.13;5.00;;;;;;;11.79;76.03;100009.59;4951752;28;20044;-63
2021/11/04 07:03:54;;;;;;;6.85;5.30;;;;;;;12.08;75.27;100014.50;4952602;28;20411;-65
2021/11/04 07:06:27;;;;;;;6.47;5.47;;;;;;;12.33;74.63;100018.78;4951032;28;20083;-64
2021/11/04 07:08:59;;;;;;;6.90;4.57;;;;;;;12.23;74.68;100028.31;4950216;28;20051;-65
2021/11/04 07:11:29;;;;;;;4.60;3.28;;;;;;;12.51;74.01;100032.31;4953178;28;20047;-62
2021/11/04 07:13:56;;;;;;;4.28;3.42;;;;;;;12.61;73.54;100039.50;4955007;28;20522;-63
2021/11/04 07:16:25;;;;;;;3.53;2.92;;;;;;;12.51;74.14;100042.00;4951154;28;20047;-62
2021/11/04 07:18:54;;;;;;;3.78;2.40;;;;;;;12.24;74.35;100038.72;4950419;28;20051;-65
2021/11/04 07:21:33;;;;;;;4.60;2.40;;;;;;;11.97;74.87;100031.06;4953134;28;20052;-65
2021/11/04 07:24:06;;;;;;;2.80;2.50;;;;;;;12.16;74.41;100048.13;4952700;28;20039;-65
2021/11/04 07:26:40;;;;;;;2.80;2.40;;;;;;;12.08;74.01;100061.84;4958114;28;20051;-62
2021/11/04 07:29:09;;;;;;;2.85;2.05;;;;;;;11.85;74.92;100069.59;4968512;28;20063;-64
2021/11/04 07:31:39;;;;;;;3.90;2.22;;;;;;;11.97;74.20;100086.28;4960935;28;20051;-64
2021/11/04 07:34:11;;;;;;;2.58;2.00;;;;;;;12.24;73.03;100088.69;4969241;28;20570;-64
2021/11/04 07:36:40;;;;;;;3.38;2.28;;;;;;;12.42;72.27;100098.81;4955399;28;20055;-64
2021/11/04 07:39:08;;;;;;;3.15;2.03;;;;;;;12.60;71.67;100107.09;4950517;28;20044;-64
2021/11/04 07:41:35;;;;;;;2.58;2.10;;;;;;;12.86;71.27;100133.25;4951861;28;20043;-64
2021/11/04 07:44:03;;;;;;;3.05;2.45;;;;;;;12.84;71.15;100129.91;4956385;28;20571;-63
2021/11/04 07:46:31;;;;;;;2.80;2.20;;;;;;;12.60;71.69;100129.97;4956388;28;20061;-64
2021/11/04 07:48:59;;;;;;;2.83;2.40;;;;;;;12.57;72.09;100136.31;4969639;28;20047;-64
2021/11/04 07:51:26;;;;;;;2.67;2.30;;;;;;;12.96;70.80;100136.84;4968475;28;20094;-64
2021/11/04 07:53:56;;;;;;;2.45;2.25;;;;;;;13.25;69.94;100149.56;4966432;28;20062;-64
2021/11/04 07:56:23;;;;;;;5.15;2.78;;;;;;;13.62;69.06;100138.81;4956186;28;20050;-64
2021/11/04 07:58:49;;;;;;;2.42;2.03;;;;;;;13.84;68.23;100137.94;4973073;28;20375;-64
2021/11/04 08:01:16;;;;;;;2.38;2.17;;;;;;;13.94;67.93;100138.06;4972520;28;20061;-64
2021/11/04 08:03:46;;;;;;;3.05;2.00;;;;;;;14.17;67.28;100138.81;4972238;28;20496;-64
2021/11/04 08:06:12;;;;;;;2.05;1.85;;;;;;;14.23;67.04;100139.28;4972952;28;20064;-63
2021/11/04 08:08:39;;;;;;;2.38;1.98;;;;;;;14.32;66.41;100149.06;4971667;28;20055;-64
2021/11/04 08:11:06;;;;;;;2.38;1.73;;;;;;;14.44;66.14;100148.06;4972859;28;20047;-65
2021/11/04 08:13:33;;;;;;;1.73;1.40;;;;;;;14.60;65.77;100155.56;4973024;28;20499;-64
2021/11/04 08:15:59;;;;;;;3.15;1.83;;;;;;;14.76;65.49;100152.50;4972512;28;20805;-64
2021/11/04 08:18:26;;;;;;;2.58;1.73;;;;;;;14.84;64.98;100142.13;4972806;28;20054;-64
2021/11/04 08:20:53;;;;;;;2.63;1.60;;;;;;;14.92;64.58;100136.22;4972315;28;20054;-64
2021/11/04 08:23:19;;;;;;;3.35;1.77;;;;;;;15.12;64.27;100139.78;4972794;28;20110;-64
2021/11/04 08:25:46;;;;;;;1.60;1.50;;;;;;;15.25;63.60;100131.63;4971771;28;20061;-64
2021/11/04 08:28:13;;;;;;;1.52;1.40;;;;;;;15.23;63.57;100133.56;4972542;28;20054;-64
2021/11/04 08:30:40;;;;;;;2.42;1.60;;;;;;;15.36;62.92;100143.91;4971979;28;20496;-64
2021/11/04 08:33:10;;;;;;;1.83;1.20;;;;;;;15.61;62.33;100158.50;4972319;28;20043;-63
2021/11/04 08:35:37;;;;;;;1.77;1.23;;;;;;;15.79;61.93;100177.19;4972522;28;20443;-64
2021/11/04 08:38:04;;;;;;;1.70;1.15;;;;;;;15.88;61.09;100185.34;4972331;28;20058;-65
2021/11/04 08:40:30;;;;;;;1.40;1.30;;;;;;;15.92;60.59;100194.66;4972026;28;20043;-64
2021/11/04 08:42:58;;;;;;;1.20;1.10;;;;;;;16.01;60.63;100204.47;4970961;28;20102;-64
2021/11/04 08:45:25;;;;;;;1.92;1.02;;;;;;;16.03;60.63;100210.44;4971988;28;20498;-64
2021/11/04 08:47:52;;;;;;;1.52;1.30;;;;;;;16.03;60.31;100207.78;4971619;28;20051;-64
2021/11/04 08:50:19;;;;;;;2.00;1.00;;;;;;;16.19;59.67;100212.56;4971902;28;20072;-65
2021/11/04 08:52:47;;;;;;;1.17;0.80;;;;;;;15.95;59.41;100213.78;4972091;28;20066;-64
2021/11/04 08:55:14;;;;;;;1.17;0.80;;;;;;;16.21;58.86;100226.50;4971936;28;20062;-64
2021/11/04 08:57:41;;;;;;;1.10;0.73;;;;;;;16.41;58.28;100222.06;4971280;28;20402;-65
2021/11/04 09:00:09;;;;;;;0.90;0.80;;;;;;;16.37;57.94;100233.09;4971240;28;20043;-64
2021/11/04 09:02:36;;;;;;;2.80;0.90;;;;;;;16.56;57.30;100234.94;4971967;28;20043;-64
2021/11/04 09:05:07;;;;;;;0.95;0.57;;;;;;;16.27;57.80;100247.13;4971691;28;20057;-64
2021/11/04 09:07:36;;;;;;;1.10;0.68;;;;;;;15.82;59.19;100253.69;4971946;28;20050;-64
2021/11/04 09:10:06;;;;;;;0.88;0.57;;;;;;;15.40;59.96;100258.19;4971283;28;20042;-63
2021/11/04 09:12:33;;;;;;;2.15;1.20;;;;;;;15.58;58.66;100248.69;4971889;28;20049;-64
2021/11/04 09:15:00;;;;;;;1.40;0.70;;;;;;;15.34;59.33;100259.56;4971598;28;20574;-64
2021/11/04 09:17:26;;;;;;;2.28;0.90;;;;;;;16.03;57.15;100258.06;4970768;28;20054;-64
2021/11/04 09:19:53;;;;;;;1.30;0.90;;;;;;;16.45;56.03;100265.00;4971440;28;20098;-63
2021/11/04 09:22:20;;;;;;;2.05;1.10;;;;;;;16.80;55.45;100261.00;4970646;28;20058;-64
2021/11/04 09:24:47;;;;;;;1.52;1.05;;;;;;;17.08;54.51;100272.59;4971606;28;20053;-64
2021/11/04 09:27:15;;;;;;;2.65;1.10;;;;;;;17.22;54.37;100273.16;4971147;28;20082;-64
2021/11/04 09:29:42;;;;;;;1.45;0.88;;;;;;;17.14;54.63;100282.66;4971239;28;20062;-64
2021/11/04 09:32:10;;;;;;;1.20;1.00;;;;;;;17.48;53.62;100272.53;4961404;28;20071;-64
2021/11/04 09:34:54;;;;;;;1.83;1.00;;;;;;;17.77;52.94;100277.75;4957355;28;20059;-65
2021/11/04 09:37:22;;;;;;;1.70;1.00;;;;;;;17.83;53.11;100277.16;4970955;28;20121;-64
2021/11/04 09:39:50;;;;;;;1.00;0.90;;;;;;;18.15;52.56;100288.38;4969851;28;20433;-64
2021/11/04 09:42:20;;;;;;;1.95;0.90;;;;;;;18.21;52.58;100291.28;4969441;28;20070;-64
2021/11/04 09:44:48;;;;;;;1.15;0.85;;;;;;;18.30;52.22;100305.50;4969520;28;20050;-63
2021/11/04 09:47:26;;;;;;;1.10;0.80;;;;;;;18.24;51.98;100306.91;4962841;28;20412;-64
2021/11/04 09:49:55;;;;;;;1.13;0.85;;;;;;;18.40;51.66;100322.22;4953487;28;20418;-66
2021/11/04 09:52:30;;;;;;;2.08;1.05;;;;;;;18.60;51.41;100319.41;4951869;28;20047;-65
2021/11/04 09:55:01;;;;;;;0.93;0.80;;;;;;;18.66;51.21;100321.47;4968626;28;20047;-64
2021/11/04 09:57:28;;;;;;;0.68;0.60;;;;;;;18.50;51.18;100318.66;4962912;28;20125;-66
2021/11/04 09:59:56;;;;;;;5.45;0.80;;;;;;;18.78;50.51;100314.16;4970328;28;20101;-62
2021/11/04 10:02:25;;;;;;;0.77;0.70;;;;;;;18.84;50.54;100315.34;4969101;28;20043;-62
2021/11/04 10:05:02;;;;;;;1.08;0.50;;;;;;;19.02;50.21;100312.72;4957079;28;20047;-63
2021/11/04 10:07:40;;;;;;;2.50;1.17;;;;;;;19.28;49.91;100319.94;4951530;28;20058;-61
2021/11/04 10:10:07;;;;;;;1.00;0.50;;;;;;;19.17;50.16;100331.63;4952428;28;20110;-62
2021/11/04 10:12:34;;;;;;;0.80;0.52;;;;;;;19.14;49.75;100327.47;4958321;28;20407;-62
2021/11/04 10:15:14;;;;;;;2.08;0.50;;;;;;;18.96;49.93;100327.47;4970026;28;20050;-63
2021/11/04 10:17:41;;;;;;;2.58;0.52;;;;;;;19.18;49.18;100330.66;4969375;28;20101;-64
2021/11/04 10:20:21;;;;;;;1.83;0.60;;;;;;;19.17;49.21;100316.53;4951228;28;20114;-63
2021/11/04 10:23:07;;;;;;;1.00;0.52;;;;;;;18.89;49.57;100326.38;4950841;28;20039;-63
2021/11/04 10:25:34;;;;;;;1.17;0.65;;;;;;;18.85;49.28;100331.16;4952905;28;20039;-63
2021/11/04 10:28:22;;;;;;;1.58;0.60;;;;;;;19.13;48.41;100327.63;4957866;28;20558;-64
2021/11/04 10:30:49;;;;;;;2.53;0.57;;;;;;;19.30;48.15;100331.22;4963928;28;20058;-63
2021/11/04 10:33:20;;;;;;;1.33;0.90;;;;;;;19.32;48.10;100345.22;4970197;28;20043;-64
2021/11/04 10:36:12;;;;;;;0.93;0.63;;;;;;;19.30;48.50;100345.41;4969941;28;20051;-63
2021/11/04 10:38:43;;;;;;;1.13;0.70;;;;;;;19.55;47.37;100361.53;4969767;28;20055;-61
2021/11/04 10:41:12;;;;;;;1.10;0.90;;;;;;;19.47;48.05;100364.16;4967513;28;20050;-61
2021/11/04 10:43:39;;;;;;;1.67;0.70;;;;;;;19.23;48.40;100373.59;4966060;28;20533;-63
2021/11/04 10:46:13;;;;;;;1.75;0.90;;;;;;;19.50;47.97;100363.81;4969746;28;20054;-64
2021/11/04 10:48:42;;;;;;;1.15;0.70;;;;;;;19.37;47.75;100354.41;4969867;28;20117;-63
2021/11/04 10:51:13;;;;;;;0.60;0.60;;;;;;;19.27;47.92;100352.84;4965313;28;20098;-61
2021/11/04 10:53:40;;;;;;;1.98;0.80;;;;;;;19.09;47.79;100359.00;4969628;28;20571;-62
2021/11/04 10:56:12;;;;;;;1.20;0.80;;;;;;;19.47;46.92;100340.19;4969343;28;20047;-61
2021/11/04 10:58:40;;;;;;;2.17;0.80;;;;;;;19.36;47.31;100347.44;4969848;28;20054;-61
2021/11/04 11:01:07;;;;;;;0.70;0.60;;;;;;;19.46;46.93;100342.00;4968620;28;20046;-61
2021/11/04 11:03:33;;;;;;;0.68;0.60;;;;;;;18.88;47.81;100360.09;4969477;28;20039;-61
2021/11/04 11:06:08;;;;;;;1.25;0.60;;;;;;;18.59;48.29;100379.72;4969470;28;20055;-60
2021/11/04 11:08:35;;;;;;;1.23;0.63;;;;;;;19.09;47.09;100381.09;4969433;28;20061;-61
2021/11/04 11:11:02;;;;;;;2.42;1.42;;;;;;;19.45;46.32;100382.09;4969040;28;20110;-60
2021/11/04 11:13:29;;;;;;;3.63;0.93;;;;;;;18.91;47.44;100377.59;4969549;28;20042;-61
2021/11/04 11:15:59;;;;;;;2.65;1.08;;;;;;;19.08;47.23;100373.28;4969112;28;20066;-60
2021/11/04 11:18:27;;;;;;;1.63;0.85;;;;;;;19.34;46.42;100370.69;4966777;28;20592;-60
2021/11/04 11:20:54;;;;;;;1.08;0.60;;;;;;;19.12;46.22;100368.50;4967039;28;20046;-61
2021/11/04 11:23:23;;;;;;;1.52;0.70;;;;;;;19.41;45.69;100368.25;4970383;28;20055;-61
2021/11/04 11:25:59;;;;;;;1.33;0.73;;;;;;;19.42;45.53;100362.75;4972865;28;20053;-61
2021/11/04 11:28:34;;;;;;;1.38;1.10;;;;;;;19.44;45.71;100375.09;4964019;28;20050;-61
2021/11/04 11:31:13;;;;;;;1.13;0.93;;;;;;;19.47;45.29;100372.97;4953059;28;20547;-61
2021/11/04 11:33:41;;;;;;;1.30;1.00;;;;;;;19.54;45.04;100374.03;4954673;28;20054;-61
2021/11/04 11:36:13;;;;;;;1.00;0.75;;;;;;;19.12;46.05;100379.13;4954509;28;20054;-62